Prince Albert Glass Field
CYPA : now visible

Airfield :











YOU CAN JOIN US ON...

 
LOGIN :

Register | Disclaimer

   EN    FR    IT 

 









Legend :    VFR   Marginal VFR   IFR   Intensive IFR   Very Intensive IFR
Visi :
Ceiling :
>= 8 km
>= 3000ft
5 to 8 km
1000 to 3000 ft
1500m to 5 km
500 to 1000 ft
800 to 1500m
200 to 500 ft
< 800m
< 200 ft
Symbols :   Thunderstorms  Fog  Heavy snow  Heavy precipitations  Wind > 20 kt






- Airport Elevation : 1405 ft
- IATA code : YPA


CYPA - Prince Albert Glass Field

CURRENT METAR :
  • 121800Z 24002KT 15SM SCT092 BKN250 20/M03 A3009 RMK CU3CI2 TCU ASOCTD VIRGA SLP203 DENSITY ALT 2100FT

EXPIRED METARs :
  • 121700Z 00000KT 15SM FEW072 FEW100 SCT140 BKN250 18/M01 A3011 RMK CU1ACC1AC2CI3 CU TR VIRGA CB TOP DIST N SLP211 DENSITY ALT 1900FT
  • 121600Z 26003KT 15SM SCT110 BKN140 BKN250 15/01 A3013 RMK ACC3AC2CI2 VIRGA SLP214 DENSITY ALT 1500FT

TAF TAF CYPA
Valid from the 12 at 13:00 until the 13 at 01:00 UTC


121238Z 1213/1301 VRB03KT P6SM SCT130
TEMPO 1213/1215 BKN130
BECMG 1216/1218 23005KT
FM121800 23005KT P6SM SCT100
TEMPO 1218/1221 BKN100
FM122100 22007KT P6SM BKN100
TEMPO 1221/1224 VRB15G25KT P6SM -SHRA BKN090
BECMG 1300/1301 20005KT RMK NXT FCST BY 121900Z
CZWG FIR / North America



MET'MAP, your aeronautical weather chart ! - Copyright ORBIFLY December 2007 - Disclaimer

ORBIFLY MET'MAP TEAM :

Programming & Development : Alexandra Zaïnal
Concept & original design : Baudouin d'Aumeries
Assistance for programming : Marc-Olivier Méhu
Technical & hardware support : Manuel Goepfert

Contact : metmap@orbifly.com




SOURCES & CREDITS :

   NOAA       Earth
Advisory